Tiempo atmosférico en la estación meteorológica de Caravaca de La Cruz, Murcia (643 m.)

Fecha
DESCASC
Temp. máxima en grados centígrados (hora)
DESCASC
Temp. mínima en grados centígrados (hora)
DESCASC
Temp. media en grados centígrados
DESCASC
Racha de viento máxima en m/sg (hora)
DESCASC
Velocidad máxima media en intervalos de 10 minutos(hora)
DESCASC
Precipitaciones diarias en mm
DESCASC
Precipitaciones de 00:00 a 06:00 en mm
DESCASC
Precipitaciones de 06:00 a 12:00 en mm
DESCASC
Precipitaciones de 12:00 a 18:00 en mm
DESCASC
Precipitaciones de 18:00 a 24:00 en mm
DESCASC
17-09-2017 28.1 (15:50) 10.2 (06:50) 19.2 6.67 (16:50) 3.89 (21:10) 0 0 0 0 0
16-09-2017 24.5 (16:20) 13.4 (07:30) 18.9 8.06 (15:10) 4.17 (17:10) 0 0 0 0 0
15-09-2017 28.6 (16:00) 16.6 (05:00) 22.6 8.89 (15:10) 4.72 (17:10) 0 0 0 0 0
14-09-2017 34.3 (15:50) 14.9 (00:00) 24.6 7.22 (09:00) 5.28 (09:00) 0 0 0 0 0
13-09-2017 31 (16:10) 13.7 (00:00) 22.3 7.22 (20:40) 3.89 (20:40) 0 0 0 0 0
12-09-2017 31.5 (15:50) 16.8 (00:00) 24.1 8.06 (17:50) 5 (07:50) 0 0 0 0 0
11-09-2017 32.2 (15:30) 13.3 (00:00) 22.8 7.78 (14:10) 4.72 (06:20) 0 0 0 0 0
10-09-2017 27.1 (16:50) 11.9 (00:00) 19.5 11.11 (10:40) 3.89 (09:20) 0 0 0 0 0
09-09-2017 30.1 (17:10) 15.8 (00:00) 23 10 (17:10) 5 (17:10) 0 0 0 0 0
08-09-2017 29.8 (16:10) 15.4 (00:00) 22.6 6.94 (22:10) 3.89 (22:10) 0 0 0 0 0
07-09-2017 31 (15:00) 17.3 (00:00) 24.1 7.78 (15:50) 4.72 (17:10) 0 0 0 0 0
06-09-2017 31 (17:00) 14.8 (00:00) 22.9 8.33 (18:20) 4.72 (02:20) 0 0 0 0 0
05-09-2017 31.4 (16:00) 16.9 (00:00) 24.1 7.22 (21:40) 4.17 (21:50) 0 0 0 0 0
04-09-2017 33.6 (13:40) 17.1 (00:00) 25.3 8.61 (16:50) 4.44 (18:10) 0 0 0 0 0
03-09-2017 30.6 (16:10) 15.3 (00:00) 23 7.78 (20:50) 4.17 (20:50) 0 0 0 0 0
02-09-2017 27.3 (15:40) 18.9 (00:00) 23.1 6.67 (22:00) 3.61 (22:00) 1.2 1.2 0 0 0
01-09-2017 28.3 (14:30) 15.2 (00:00) 21.7 7.5 (18:20) 3.89 (17:20) 0 0 0 0 0
31-08-2017 28.2 (15:50) 15.7 (00:00) 22 6.11 (17:20) 3.33 (17:20) 0 0 0 0 0
30-08-2017 23.6 (18:10) 16.3 (00:00) 19.9 6.94 (00:10) 3.61 (00:10) 4.2 0 1.2 3 0
29-08-2017 22.2 (12:00) 16.2 (00:00) 19.2 8.06 (16:30) 3.89 (16:30) 18 3.2 0 9.2 5.6
28-08-2017 27.1 (18:40) 19.3 (00:00) 23.2 9.72 (14:00) 5.28 (14:00) 0 0 0 0 0
27-08-2017 30.9 (16:40) 18.6 (00:00) 24.8 7.5 (18:00) 3.61 (04:10) 0 0 0 0 0
26-08-2017 34.6 (16:30) 18.5 (00:00) 26.5 8.33 (15:40) 5.28 (16:50) 0 0 0 0 0
25-08-2017 33.9 (15:00) 15.7 (00:00) 24.8 8.33 (19:00) 4.17 (18:30) 0 0 0 0 0
24-08-2017 34.5 (16:20) 16.6 (00:00) 25.6 8.33 (15:10) 4.72 (16:30) 0 0 0 0 0
23-08-2017 37.4 (15:00) 16.8 (00:00) 27.1 8.89 (16:30) 4.17 (16:10) 0 0 0 0 0
22-08-2017 34.7 (15:50) 16.4 (00:00) 25.6 7.22 (18:00) 3.89 (18:50) 0 0 0 0 0

Gráficas

Temp. máximas Temp. mínimas Temp. medias Precipitaciones Rachas de viento máximas Velocidades máximas media en intervalos de 10 minutos

Datos horarios

Fecha y hora oficial Temperatura (ºC) Velocidad del viento (km/h) Dirección del viento Racha (km/h) Dirección de racha Precipitación (mm) Presión (hPa) Tendencia (hPa) Humedad (%)
2017-09-20 23:00:00 19.3 10 Oeste 20 Sudoeste 0 945.2 0.7 61
2017-09-20 22:00:00 20.2 10 Oeste 19 Oeste 0 945.1 0.9 58
2017-09-20 21:00:00 21.4 9 Oeste 15 Oeste 0 944.8 0.8 54
2017-09-20 20:00:00 22.8 5 Oeste 17 Sur 0 944.5 0.2 50
2017-09-20 19:00:00 25.1 10 Sudoeste 21 Sur 0 944.2 -0.8 41
2017-09-20 18:00:00 26.8 8 Sudeste 20 Sur 0 944 -1.6 38
2017-09-20 17:00:00 27.1 6 Sudeste 18 Nordeste 0 944.3 -2 37
2017-09-20 16:00:00 26.6 6 Este 18 Este 0 945 -1.9 43
2017-09-20 15:00:00 26.8 6 Este 22 Este 0 945.6 -1.6 42
2017-09-20 14:00:00 24.8 9 Este 20 Este 0 946.3 -1.3 49
2017-09-20 13:00:00 24.4 10 Este 16 Nordeste 0 946.9 -0.6 48
2017-09-20 12:00:00 23.1 7 Nordeste 15 Este 0 947.2 -0.2 52
2017-09-20 11:00:00 21.5 6 Este 11 Este 0 947.6 0.2 57
2017-09-20 10:00:00 18.7 6 Sudoeste 12 Sudoeste 0 947.5 0.4 63
2017-09-20 09:00:00 14.6 7 Sudoeste 13 Sudoeste 0 947.4 0.4 71
2017-09-20 08:00:00 10.6 3 Oeste 7 Oeste 0 947.4 0.4 86
2017-09-20 07:00:00 10.9 0 Calma 8 Oeste 0 947.1 0 83
2017-09-20 06:00:00 11.6 3 Sudoeste 14 Oeste 0 947 -0.1 79
2017-09-20 05:00:00 13.6 8 Oeste 14 Sudoeste 0 947 -0.2 68
2017-09-20 04:00:00 13.9 7 Oeste 14 Oeste 0 947.1 -0.3 67
2017-09-20 03:00:00 15.2 5 Sudoeste 18 Sudoeste 0 947.1 -0.4 65
2017-09-20 02:00:00 17.1 7 Oeste 16 Oeste 0 947.2 -0.2 62
2017-09-20 01:00:00 17 9 Oeste 15 Oeste 0 947.4 0.3 66
2017-09-20 00:00:00 17.2 7 Oeste 16 Sudoeste 0 947.5 0.8 66
2017-09-19 23:00:00 18.9 8 Oeste 19 Sudoeste 0 947.4 1.2 65
2017-09-19 22:00:00 20.3 10 Oeste 22 Sudoeste 0 947.1 1.5 62
2017-09-19 21:00:00 21.6 13 Oeste 22 Sudoeste 0 946.7 1.1 57
2017-09-19 20:00:00 23.2 7 Sudoeste 15 Sudoeste 0 946.2 0.3 43
2017-09-19 19:00:00 25.6 5 Este 13 Este 0 945.6 -0.7 24
2017-09-19 18:00:00 26.7 6 Este 14 Este 0 945.6 -1.4 22
2017-09-19 17:00:00 26.7 7 Este 20 Sudeste 0 945.9 -1.8 23
2017-09-19 16:00:00 26.9 5 Sudeste 22 Nordeste 0 946.3 -1.7 23
2017-09-19 15:00:00 26.7 9 Sudeste 21 Sudeste 0 947 -1.2 23
2017-09-19 14:00:00 26.6 8 Sudeste 27 Este 0 947.7 -0.6 24
2017-09-19 13:00:00 24.9 12 Nordeste 27 Nordeste 0 948 -0.3 26
2017-09-19 12:00:00 23.8 16 Nordeste 28 Nordeste 0 948.2 0.3 27
2017-09-19 11:00:00 23.8 5 Sudeste 15 Sudeste 0 948.3 0.7 28
2017-09-19 10:00:00 20.2 4 Sudeste 11 Sudoeste 0 948.3 1.3 38
2017-09-19 09:00:00 14.3 4 Sudoeste 9 Sudoeste 0 947.9 1.1 56
2017-09-19 08:00:00 10.7 2 Sudoeste 14 Nordeste 0 947.6 1 67
2017-09-19 07:00:00 13.4 7 Sudoeste 12 Sudoeste 0 947 0 54
2017-09-19 06:00:00 14 5 Sur 14 Sur 0 946.8 -0.3 51
2017-09-19 05:00:00 15 8 Sudoeste 15 Sudoeste 0 946.6 -0.7 48
2017-09-19 04:00:00 14.5 8 Oeste 11 Oeste 0 947 -0.2 53
2017-09-19 03:00:00 17.3 6 Noroeste 17 Noroeste 0 947.1 0 41
2017-09-19 02:00:00 15.8 4 Noroeste 9 Noroeste 0 947.3 0.7 46
2017-09-19 01:00:00 17.1 3 Noroeste 11 Noroeste 0 947.2 1.3 43
2017-09-19 00:00:00 18.3 6 Noroeste 13 Noroeste 0 947.1 2.2 39
2017-09-18 23:00:00 19.4 8 Oeste 15 Noroeste 0 946.6 2.6 34
2017-09-18 22:00:00 18.9 7 Noroeste 13 Noroeste 0 945.9 2.4 36
2017-09-18 21:00:00 21 6 Noroeste 15 Norte 0 944.9 2 30
2017-09-18 20:00:00 24.1 5 Noroeste 24 Oeste 0 944 1.6 25
2017-09-18 19:00:00 25.9 7 Noroeste 27 Noroeste 0 943.5 0.9 20
2017-09-18 18:00:00 27.3 11 Noroeste 27 Oeste 0 942.9 -0.2 15
2017-09-18 17:00:00 28.9 8 Noroeste 28 Oeste 0 942.4 -1.2 14
2017-09-18 16:00:00 29.9 10 Oeste 30 Oeste 0 942.6 -1.4 13
2017-09-18 15:00:00 29.3 11 Noroeste 25 Noroeste 0 943.1 -1.2 14
2017-09-18 14:00:00 28.4 9 Este 20 Sudeste 0 943.6 -0.7 19
2017-09-18 13:00:00 26.6 12 Este 21 Nordeste 0 944 -0.2 22
2017-09-18 12:00:00 26.2 8 Nordeste 13 Nordeste 0 944.3 0.3 22
2017-09-18 11:00:00 24.3 5 Sudoeste 18 Sur 0 944.3 0.2 28
2017-09-18 10:00:00 20.2 6 Sudoeste 27 Sudoeste 0 944.2 0.6 36
2017-09-18 09:00:00 14.7 17 Oeste 26 Sudoeste 0 944 0.5 47
2017-09-18 08:00:00 12.7 16 Oeste 25 Oeste 0 944.1 0.4 52
2017-09-18 07:00:00 13.6 15 Oeste 24 Oeste 0 943.6 -0.3 48
2017-09-18 06:00:00 13.5 15 Oeste 24 Oeste 0 943.5 -0.7 49
2017-09-18 05:00:00 14.5 11 Oeste 19 Oeste 0 943.7 -0.4 46
2017-09-18 04:00:00 14 10 Sudoeste 19 Oeste 0 943.9 -0.4 54
2017-09-18 03:00:00 15.6 11 Oeste 18 Oeste 0 944.2 -0.3 61
2017-09-18 02:00:00 17.1 14 Oeste 18 Oeste 0 944.1 -0.4 69
2017-09-18 01:00:00 17.9 11 Sudoeste 20 Sudoeste 0 944.3 -0.1 76
2017-09-18 00:00:00 18.4 10 Sudoeste 19 Sudoeste 0 944.5 0.7 77
2017-09-17 23:00:00 19.1 13 Sudoeste 22 Sudoeste 0 944.5 1.5 76
2017-09-17 22:00:00 20.1 12 Oeste 22 Oeste 0 944.4 1.8 70
2017-09-17 21:00:00 20.8 12 Oeste 22 Oeste 0 943.8 1.2 62
2017-09-17 20:00:00 22.5 11 Sudoeste 22 Sudoeste 0 943 0.4 53
2017-09-17 19:00:00 24.6 6 Sur 21 Este 0 942.6 -0.2 40
2017-09-17 18:00:00 25.3 12 Este 24 Nordeste 0 942.6 -0.9 37
2017-09-17 17:00:00 26.1 13 Nordeste 24 Este 0 942.6 -1.8 35
2017-09-17 16:00:00 26.8 5 Noroeste 21 Sudeste 0 942.8 -2.2 30
2017-09-17 15:00:00 27.5 10 Sudeste 19 Sur 0 943.5 -1.9 26
2017-09-17 14:00:00 26.4 9 Sudeste 20 Sudeste 0 944.4 -1.1 24
2017-09-17 13:00:00 25.8 5 Sur 18 Este 0 945 -0.5 23
2017-09-17 12:00:00 24.1 3 Sur 13 Sudoeste 0 945.4 0.4 30
2017-09-17 11:00:00 21.4 4 Sur 12 Sudoeste 0 945.5 0.9 46
2017-09-17 10:00:00 16.9 8 Sudoeste 16 Oeste 0 945.5 1.3 52
2017-09-17 09:00:00 12.6 11 Oeste 18 Oeste 0 945 1.2 68
2017-09-17 08:00:00 10.4 8 Oeste 15 Sudoeste 0 944.6 0.8 83
2017-09-17 07:00:00 10.4 8 Oeste 12 Sudoeste 0 944.2 0.8 85
2017-09-17 06:00:00 10.8 7 Sudoeste 11 Oeste 0 943.8 0.3 87
2017-09-17 05:00:00 10.5 3 Oeste 9 Noroeste 0 943.8 0.3 89
2017-09-17 04:00:00 11.9 3 Sudoeste 12 Sudoeste 0 943.4 -0.4 88
2017-09-17 03:00:00 13.5 6 Sudoeste 16 Sudoeste 0 943.5 -0.5 84
2017-09-17 02:00:00 13.3 2 Sudoeste 11 Oeste 0 943.5 -0.2 89
2017-09-17 01:00:00 13.6 4 Sudoeste 8 Oeste 0 943.8 0.9 89
2017-09-17 00:00:00 14.5 2 Noroeste 8 Nordeste 0 944 2.2 86
2017-09-16 23:00:00 15.9 4 Norte 13 Nordeste 0 943.7 2.9 84
2017-09-16 22:00:00 16 4 Nordeste 14 Nordeste 0 942.9 3 82
2017-09-16 21:00:00 17.3 6 Norte 13 Nordeste 0 941.8 2.7 76
2017-09-16 20:00:00 18.9 6 Nordeste 17 Nordeste 0 940.8 2 68
2017-09-16 19:00:00 20.2 7 Este 20 Este 0 939.9 1.1 61
2017-09-16 18:00:00 22.2 12 Este 26 Sudeste 0 939.1 0.2 50
2017-09-16 17:00:00 23.4 14 Este 24 Nordeste 0 938.8 -0.6 46
2017-09-16 16:00:00 24.2 12 Este 29 Este 0 938.8 -0.9 44
2017-09-16 15:00:00 22.3 12 Nordeste 24 Este 0 938.9 -1.4 49
2017-09-16 14:00:00 23.1 10 Nordeste 27 Nordeste 0 939.4 -1 50
2017-09-16 13:00:00 22.1 11 Nordeste 25 Nordeste 0 939.7 -0.7 51
2017-09-16 12:00:00 21.4 6 Sudeste 17 Este 0 940.3 0.4 53
2017-09-16 11:00:00 18.9 4 Este 10 Sur 0 940.4 1 64
2017-09-16 10:00:00 16.3 4 Este 9 Sudeste 0 940.4 1.3 75
2017-09-16 09:00:00 14.7 3 Sudeste 5 Sudeste 0 939.9 0.7 81
2017-09-16 08:00:00 13.8 3 Noroeste 4 Noroeste 0 939.4 0.1 85
2017-09-16 07:00:00 14 2 Este 8 Nordeste 0 939.1 -0.4 82
2017-09-16 06:00:00 14.3 3 Nordeste 13 Este 0 939.2 -0.5 81
2017-09-16 05:00:00 14.4 6 Este 14 Nordeste 0 939.3 -0.4 82
2017-09-16 04:00:00 14.6 6 Nordeste 17 Nordeste 0 939.5 -0.3 81
2017-09-16 03:00:00 14.9 5 Nordeste 20 Nordeste 0 939.7 0.1 80
2017-09-16 02:00:00 15.2 12 Nordeste 20 Nordeste 0 939.7 0.6 82
2017-09-16 01:00:00 15.9 12 Nordeste 20 Nordeste 0 939.8 0.9 81
2017-09-16 00:00:00 16.6 8 Nordeste 23 Nordeste 0 939.6 1.8 81
2017-09-15 23:00:00 17.9 5 Nordeste 23 Nordeste 0 939.1 2.1 81
2017-09-15 22:00:00 18.9 10 Nordeste 23 Nordeste 0 938.9 2.8 77
2017-09-15 21:00:00 20.6 12 Este 22 Nordeste 0 937.8 1.9 78
2017-09-15 20:00:00 22.1 8 Nordeste 22 Nordeste 0 937 1.2 72
2017-09-15 19:00:00 24.5 8 Nordeste 20 Este 0 936.1 0.1 63
2017-09-15 18:00:00 25.1 11 Este 30 Este 0 935.9 -0.7 60
2017-09-15 17:00:00 27.4 15 Este 31 Este 0 935.8 -1.3 48
2017-09-15 16:00:00 28.6 11 Este 32 Nordeste 0 936 -1.9 41
2017-09-15 15:00:00 27.6 17 Este 27 Este 0 936.6 -2.4 44
2017-09-15 14:00:00 27.5 12 Este 22 Nordeste 0 937.1 -2.4 45
2017-09-15 13:00:00 26.4 7 Nordeste 18 Este 0 937.9 -1.4 50
2017-09-15 12:00:00 24.6 8 Nordeste 14 Este 0 939 -0.2 57
2017-09-15 11:00:00 23 7 Este 15 Este 0 939.5 0.2 65
2017-09-15 10:00:00 21 8 Nordeste 13 Este 0 939.3 0 75
2017-09-15 09:00:00 19.3 4 Nordeste 9 Norte 0 939.2 -0.3 86
2017-09-15 08:00:00 18.6 5 Norte 12 Norte 0 939.3 -0.5 85
2017-09-15 07:00:00 18.7 5 Norte 12 Nordeste 0 939.3 -0.8 83
2017-09-15 06:00:00 18.6 6 Nordeste 13 Nordeste 0 939.5 -0.9 71
2017-09-15 05:00:00 16.6 3 Oeste 7 Noroeste 0 939.8 -0.6 55
2017-09-15 04:00:00 18.7 6 Sudoeste 8 Sudoeste 0 940.1 -1 45
2017-09-15 03:00:00 21.4 5 Oeste 15 Oeste 0 940.4 -1.1 36
2017-09-15 02:00:00 20.8 0 Calma 6 Sudoeste 0 940.4 -1.5 42
2017-09-15 01:00:00 21.9 2 Oeste 12 Oeste 0 941.1 -0.8 39
2017-09-15 00:00:00 23.7 9 Oeste 21 Oeste 0 941.5 -0.3 30
2017-09-14 23:00:00 23.5 10 Sudoeste 19 Oeste 0 941.9 0.8 34
2017-09-14 22:00:00 25.9 12 Oeste 19 Oeste 0 941.9 1.2 29
2017-09-14 21:00:00 26.5 10 Oeste 20 Oeste 0 941.8 1.2 28
2017-09-14 20:00:00 28.3 9 Oeste 19 Sudoeste 0 941.1 0 26
2017-09-14 19:00:00 31.4 7 Sur 26 Este 0 940.7 -1.1 21
2017-09-14 18:00:00 32.9 9 Este 20 Sudeste 0 940.6 -2.3 16
2017-09-14 17:00:00 33.3 9 Nordeste 23 Este 0 941.1 -2.5 15
2017-09-14 16:00:00 34.2 11 Este 26 Este 0 941.8 -2.7 15
2017-09-14 15:00:00 33.6 7 Sudeste 20 Sudeste 0 942.9 -2.3 16
2017-09-14 14:00:00 33.3 12 Este 24 Este 0 943.6 -2.1 17
2017-09-14 13:00:00 32.8 6 Este 22 Sur 0 944.5 -1 18
2017-09-14 12:00:00 32 7 Sur 18 Sur 0 945.2 -0.3 19
2017-09-14 11:00:00 28.5 12 Sudoeste 22 Sudoeste 0 945.7 0.5 25
2017-09-14 10:00:00 25 14 Oeste 26 Sudoeste 0 945.5 0.2 30
2017-09-14 09:00:00 19.9 19 Sudoeste 26 Sudoeste 0 945.5 0 40
2017-09-14 08:00:00 18.8 18 Oeste 26 Oeste 0 945.2 -0.7 41
2017-09-14 07:00:00 16.6 8 Oeste 20 Oeste 0 945.3 -0.8 49
2017-09-14 06:00:00 15.2 3 Oeste 20 Oeste 0 945.5 -1 59
2017-09-14 05:00:00 16.2 10 Oeste 16 Oeste 0 945.9 -1 51
2017-09-14 04:00:00 17.1 9 Oeste 23 Oeste 0 946.1 -1.2 50
2017-09-14 03:00:00 17.1 12 Oeste 19 Oeste 0 946.5 -1 51
2017-09-14 02:00:00 16.9 10 Oeste 22 Sudoeste 0 946.9 -1 52
2017-09-14 01:00:00 17.8 6 Oeste 19 Sudoeste 0 947.3 -0.6 50
2017-09-14 00:00:00 18.9 10 Sudoeste 24 Sudoeste 0 947.5 0.1 46
2017-09-13 23:00:00 20.3 13 Sudoeste 22 Sudoeste 0 947.9 0.8 42
2017-09-13 22:00:00 22.3 9 Sudoeste 23 Oeste 0 947.9 0.9 35
2017-09-13 21:00:00 23.3 11 Oeste 26 Oeste 0 947.4 0.3 32
2017-09-13 20:00:00 25.2 12 Oeste 26 Sudoeste 0 947.1 -0.4 30
2017-09-13 19:00:00 27.7 12 Sur 25 Sudoeste 0 947 -1.1 25
2017-09-13 18:00:00 29.6 10 Sur 26 Sudoeste 0 947.1 -1.7 24
2017-09-13 17:00:00 30.6 10 Sur 22 Sur 0 947.5 -2 25
2017-09-13 16:00:00 30.6 9 Sur 24 Sudoeste 0 948.1 -1.9 26
2017-09-13 15:00:00 30.5 9 Sur 21 Sudoeste 0 948.8 -1.5 26
2017-09-13 14:00:00 29.1 12 Sudoeste 24 Sur 0 949.5 -0.8 29
2017-09-13 13:00:00 28.3 10 Sudoeste 23 Sudoeste 0 950 0 32
2017-09-13 12:00:00 26.1 13 Sudoeste 26 Sudoeste 0 950.3 0.7 36
2017-09-13 11:00:00 23.8 10 Sudoeste 22 Sudoeste 0 950.3 1 48
2017-09-13 10:00:00 21.4 7 Sudoeste 15 Sudoeste 0 950 1.2 56
2017-09-13 09:00:00 17 6 Sudoeste 10 Sudoeste 0 949.6 1.1 79
2017-09-13 08:00:00 14.7 6 Oeste 12 Oeste 0 949.3 1.1 89
2017-09-13 07:00:00 14.6 7 Oeste 11 Oeste 0 948.8 0.3 90
2017-09-13 06:00:00 14 3 Noroeste 5 Noroeste 0 948.5 0 89
2017-09-13 05:00:00 15.1 4 Oeste 9 Noroeste 0 948.2 -0.5 87
2017-09-13 04:00:00 15.5 5 Oeste 9 Sur 0 948.5 0.1 86
2017-09-13 03:00:00 16.8 6 Noroeste 13 Oeste 0 948.5 0.4 82
2017-09-13 02:00:00 17.6 7 Sur 13 Sudoeste 0 948.7 0.8 79
2017-09-13 01:00:00 17.1 7 Oeste 10 Oeste 0 948.4 1.2 81
2017-09-13 00:00:00 17.7 2 Norte 9 Norte 0 948.1 2.2 78
2017-09-12 23:00:00 18.9 4 Norte 10 Nordeste 0 947.9 3.3 73
2017-09-12 22:00:00 20.3 5 Norte 9 Norte 0 947.2 3.2 69
2017-09-12 21:00:00 22 5 Norte 10 Nordeste 0 945.9 2.7 63
2017-09-12 20:00:00 24.6 4 Noroeste 15 Nordeste 0 944.6 1.6 56
2017-09-12 19:00:00 26.6 7 Este 22 Este 0 944 1.2 48
2017-09-12 18:00:00 28.4 15 Este 29 Este 0 943.2 0.3 40
2017-09-12 17:00:00 30.4 8 Sudeste 25 Sudeste 0 943 0 23
2017-09-12 16:00:00 31.2 13 Este 27 Este 0 942.8 -0.3 21
2017-09-12 15:00:00 31.3 9 Este 27 Este 0 942.9 -0.4 20
2017-09-12 14:00:00 30.3 15 Este 28 Nordeste 0 943 -0.1 22
2017-09-12 13:00:00 30.3 9 Este 20 Este 0 943.1 0.4 22
2017-09-12 12:00:00 28.6 7 Este 12 Este 0 943.3 0.9 24
2017-09-12 11:00:00 27.5 4 Este 10 Este 0 943.1 1.3 27
2017-09-12 10:00:00 24.4 6 Sudoeste 20 Oeste 0 942.7 1.6 33
2017-09-12 09:00:00 19 14 Oeste 23 Sudoeste 0 942.4 1.4 45
2017-09-12 08:00:00 16.8 17 Sudoeste 26 Sudoeste 0 941.8 0.8 49
2017-09-12 07:00:00 18.7 8 Oeste 14 Oeste 0 941.1 -0.2 42
2017-09-12 06:00:00 18.2 7 Oeste 14 Oeste 0 941 -0.1 44
2017-09-12 05:00:00 19 7 Oeste 15 Oeste 0 941 -0.1 40
2017-09-12 04:00:00 18.5 9 Oeste 14 Oeste 0 941.3 0.2 39
2017-09-12 03:00:00 19.7 9 Oeste 14 Oeste 0 941.1 0 35
2017-09-12 02:00:00 19.9 4 Oeste 23 Sudoeste 0 941.1 0.3 35
2017-09-12 01:00:00 20.7 15 Oeste 22 Oeste 0 941.1 0.7 32
2017-09-12 00:00:00 20.6 10 Sudoeste 22 Sudoeste 0 941.1 1.2 34
2017-09-11 23:00:00 22.4 7 Oeste 20 Oeste 0 940.8 1.4 32
2017-09-11 22:00:00 23.1 14 Sudoeste 24 Sudoeste 0 940.4 1.1 32
2017-09-11 21:00:00 24.7 11 Oeste 20 Oeste 0 939.9 0.8 28
2017-09-11 20:00:00 26.8 13 Oeste 26 Oeste 0 939.4 0.3 25
2017-09-11 19:00:00 29.3 11 Sudoeste 23 Sur 0 939.3 -0.5 21
2017-09-11 18:00:00 31.3 9 Sur 20 Nordeste 0 939.1 -1.4 19
2017-09-11 17:00:00 31.5 12 Nordeste 23 Nordeste 0 939.1 -1.9 19
2017-09-11 16:00:00 31.8 6 Este 18 Nordeste 0 939.8 -1.7 18
2017-09-11 15:00:00 31 9 Este 28 Este 0 940.5 -1.5 19
2017-09-11 14:00:00 31.6 9 Este 24 Sudeste 0 941 -0.9 19
2017-09-11 13:00:00 31.2 8 Sudeste -- -- -- 941.5 -0.4 17
2017-09-11 12:00:00 29 7 Este 17 Este 0 942 0.2 21
2017-09-11 11:00:00 26.6 8 Sudoeste 16 Sudoeste 0 941.9 0.3 23
2017-09-11 10:00:00 22 8 Sudoeste 22 Sudoeste 0 941.9 0.8 30
2017-09-11 09:00:00 17.5 13 Oeste 24 Oeste 0 941.8 0.8 37
2017-09-11 08:00:00 15.1 13 Oeste 19 Sudoeste 0 941.6 0.5 40
2017-09-11 07:00:00 15 4 Oeste 24 Oeste 0 941.1 -0.6 43
2017-09-11 06:00:00 16.1 9 Sudoeste 19 Sudoeste 0 941 -1.2 35
2017-09-11 05:00:00 16.6 11 Oeste 21 Sudoeste 0 941.1 -1.3 32
2017-09-11 04:00:00 16.1 9 Oeste 20 Sudoeste 0 941.7 -0.6 33
2017-09-11 03:00:00 15.7 5 Oeste 17 Oeste 0 942.2 -0.2 41
2017-09-11 02:00:00 16.3 8 Oeste 19 Oeste 0 942.4 0.2 33
2017-09-11 01:00:00 16.4 12 Oeste 18 Sudoeste 0 942.3 0.6 32
2017-09-11 00:00:00 17 12 Sudoeste 19 Oeste 0 942.4 1.7 30
2017-09-10 23:00:00 17.2 7 Noroeste 12 Oeste 0 942.2 2.2 29
2017-09-10 22:00:00 18 5 Oeste 14 Oeste 0 941.7 2.3 28
2017-09-10 21:00:00 19.7 6 Noroeste 15 Noroeste 0 940.7 1.6 24
2017-09-10 20:00:00 23.2 7 Oeste 19 Noroeste 0 940 1 18
2017-09-10 19:00:00 25 5 Noroeste 21 Noroeste 0 939.4 0 17
2017-09-10 18:00:00 26.1 8 Norte 27 Oeste 0 939.1 -0.6 14
2017-09-10 17:00:00 26.1 9 Noroeste 28 Oeste 0 939 -0.9 14
2017-09-10 16:00:00 26.3 9 Norte 24 Norte 0 939.4 -0.7 14
2017-09-10 15:00:00 26.7 6 Noroeste 27 Norte 0 939.7 -0.4 16
2017-09-10 14:00:00 24.9 9 Norte 30 Norte 0 939.9 -0.2 19
2017-09-10 13:00:00 24.1 6 Norte 27 Oeste 0 940.1 0.2 21
2017-09-10 12:00:00 22.5 6 Sur 31 Noroeste 0 940.1 0.5 25
2017-09-10 11:00:00 20.4 8 Norte 40 Norte 0 940.1 1.4 29
2017-09-10 10:00:00 17.8 12 Norte 36 Norte 0 939.9 1.9 35
2017-09-10 09:00:00 16.5 10 Norte 22 Noroeste 0 939.6 2.2 39
2017-09-10 08:00:00 13.5 4 Noroeste 18 Norte 0 938.7 1.9 50
2017-09-10 07:00:00 12 4 Noroeste 9 Norte 0 938 1.4 57
2017-09-10 06:00:00 13.4 5 Noroeste 14 Norte 0 937.4 1 48
2017-09-10 05:00:00 15.5 5 Noroeste 12 Noroeste 0 936.8 0.9 36
2017-09-10 04:00:00 17 5 Noroeste 17 Noroeste 0 936.6 1.3 30
2017-09-10 03:00:00 18.7 6 Noroeste 23 Norte 0 936.4 1.4 26
2017-09-10 02:00:00 19.1 6 Noroeste 23 Oeste 0 935.9 1 30
2017-09-10 01:00:00 20.1 6 Oeste 17 Oeste 0 935.3 0.9 34
2017-09-10 00:00:00 21.1 8 Oeste 16 Oeste 0 935 1.5 33
2017-09-09 23:00:00 22.8 5 Noroeste 15 Norte 0 934.9 1.9 31
2017-09-09 22:00:00 23.7 8 Oeste 24 Oeste 0 934.4 1.7 31
2017-09-09 21:00:00 24 9 Oeste 30 Oeste 0 933.5 0.9 31
2017-09-09 20:00:00 25.4 10 Noroeste 32 Noroeste 0 933 0.2 26
2017-09-09 19:00:00 27 12 Oeste 27 Oeste 0 932.7 -0.7 23
2017-09-09 18:00:00 28.6 6 Oeste 36 Sudoeste 0 932.6 -1 19
2017-09-09 17:00:00 30 10 Sudoeste 25 Oeste 0 932.8 -1.8 17
2017-09-09 16:00:00 25.9 6 Nordeste 24 Sudoeste 0 933.4 -1.6 22
2017-09-09 15:00:00 26.1 10 Oeste 24 Noroeste 0 933.6 -1.8 17
2017-09-09 14:00:00 25.4 5 Sudoeste 14 Sudoeste 0 934.6 -1.1 27
2017-09-09 13:00:00 24.7 2 Sudoeste 8 Sur 0 935 -0.8 31
2017-09-09 12:00:00 25.2 4 Sudoeste 14 Sudoeste 0 935.4 -0.5 22
2017-09-09 11:00:00 23.7 10 Oeste 18 Sudoeste 0 935.7 -0.1 26
2017-09-09 10:00:00 21.6 9 Sudoeste 16 Sudoeste 0 935.8 -0.5 31
2017-09-09 09:00:00 16.8 3 Norte 11 Oeste 0 935.9 -0.7 60
2017-09-09 08:00:00 16.3 6 Norte 15 Oeste 0 935.8 -1.1 48
2017-09-09 07:00:00 18.7 13 Oeste 23 Oeste 0 936.3 -0.9 40
2017-09-09 06:00:00 19.4 13 Oeste 28 Oeste 0 936.6 -1.2 40
2017-09-09 05:00:00 18.8 9 Sudoeste 15 Oeste 0 936.9 -1.7 44
2017-09-09 04:00:00 20.2 12 Oeste 19 Oeste 0 937.2 -2 40
2017-09-09 03:00:00 18.5 12 Oeste 15 Oeste 0 937.8 -1.6 55
2017-09-09 02:00:00 16.4 5 Oeste 9 Noroeste 0 938.6 -0.7 88
2017-09-09 01:00:00 17.4 2 Sur 9 Oeste 0 939.2 0.2 83
2017-09-09 00:00:00 19.5 3 Sudoeste 12 Oeste 0 939.4 0.4 78
2017-09-08 23:00:00 20.9 6 Noroeste 25 Sudoeste 0 939.3 0.4 75
2017-09-08 22:00:00 23 13 Sudoeste 21 Sudoeste 0 939 0.1 69
2017-09-08 21:00:00 24.3 13 Sudoeste 22 Oeste 0 939 -0.2 63
2017-09-08 20:00:00 26.3 12 Sudoeste 17 Oeste 0 938.9 -0.6 56
2017-09-08 19:00:00 28.3 10 Sudoeste 17 Sudoeste 0 938.9 -1.3 48
2017-09-08 18:00:00 28.4 8 Nordeste 22 Este 0 939.2 -1.9 52
2017-09-08 17:00:00 29.1 12 Este 19 Nordeste 0 939.5 -2.2 48
2017-09-08 16:00:00 29.4 8 Nordeste 21 Sudeste 0 940.2 -2.3 47
2017-09-08 15:00:00 28.9 8 Nordeste 18 Nordeste 0 941.1 -2 48
2017-09-08 14:00:00 28 9 Este 18 Este 0 941.7 -1.5 52
2017-09-08 13:00:00 26.5 6 Este 12 Nordeste 0 942.5 -0.6 56
2017-09-08 12:00:00 25.5 6 Sudeste 13 Sudeste 0 943.1 0.1 58
2017-09-08 11:00:00 23.4 6 Este 13 Este 0 943.2 0.5 64
2017-09-08 10:00:00 20.8 2 Noroeste 9 Sudoeste 0 943.1 0.4 70
2017-09-08 09:00:00 17.2 0 Calma 6 Nordeste 0 943 0.1 91
2017-09-08 08:00:00 15.5 2 Noroeste 5 Noroeste 0 942.7 -0.4 91
2017-09-08 07:00:00 15.7 2 Noroeste 5 Norte 0 942.7 -0.4 89
2017-09-08 06:00:00 16.2 0 Calma 5 Noroeste 0 942.9 -0.5 88
2017-09-08 05:00:00 17.2 3 Nordeste 12 Oeste 0 943.1 -0.6 83
2017-09-08 04:00:00 17.5 4 Oeste 11 Sudoeste 0 943.1 -0.8 82
2017-09-08 03:00:00 18.6 3 Sudoeste 14 Sudoeste 0 943.4 -0.6 77
2017-09-08 02:00:00 19.1 6 Sudoeste 14 Sudoeste 0 943.7 -0.3 76
2017-09-08 01:00:00 19.5 4 Oeste 12 Oeste 0 943.9 0.2 76
2017-09-08 00:00:00 20.9 5 Sudoeste 15 Sudoeste 0 944 0.8 72
2017-09-07 23:00:00 21.7 8 Oeste 18 Sudoeste 0 944 1.5 69
2017-09-07 22:00:00 22.4 7 Oeste 14 Sudoeste 0 943.7 1.6 66
2017-09-07 21:00:00 22.8 4 Norte 11 Nordeste 0 943.2 1.2 70
2017-09-07 20:00:00 24.9 4 Nordeste 20 Este 0 942.5 0.3 62
2017-09-07 19:00:00 26.1 10 Nordeste 23 Nordeste 0 942.1 -0.8 57
2017-09-07 18:00:00 26.9 12 Este 28 Este 0 942 -1.1 52
2017-09-07 17:00:00 28.7 14 Este 27 Este 0 942.2 -1.7 46
2017-09-07 16:00:00 29 14 Este 28 Este 0 942.9 -1.6 42
2017-09-07 15:00:00 30.4 8 Sudeste 18 Sur 0 943.1 -1.8 32
2017-09-07 14:00:00 30.4 7 Sudeste 22 Sur 0 943.9 -1.2 28
2017-09-07 13:00:00 28.5 11 Sur 23 Sudoeste 0 944.5 -0.8 26
2017-09-07 12:00:00 25.5 13 Oeste 24 Oeste 0 944.9 -0.5 47
2017-09-07 11:00:00 24.1 12 Sudoeste 20 Sudoeste 0 945.1 -0.1 55
2017-09-07 10:00:00 21.4 5 Sudoeste 9 Sudoeste 0 945.3 0.6 69
2017-09-07 09:00:00 19 0 Calma 11 Norte 0 945.4 0.9 85
2017-09-07 08:00:00 18 2 Noroeste 7 Sudoeste 0 945.2 0.4 88
2017-09-07 07:00:00 17.3 4 Sur 8 Sur 0 944.7 -0.3 88
2017-09-07 06:00:00 18.2 7 Oeste 15 Oeste 0 944.5 -1.3 84
2017-09-07 05:00:00 18.4 6 Oeste 12 Sudoeste 0 944.8 -1.3 86
2017-09-07 04:00:00 18.1 5 Sudoeste 9 Sudoeste 0 945 -1.3 89
2017-09-07 03:00:00 18 2 Sudoeste 7 Sur 0 945.8 -1 87
2017-09-07 02:00:00 19.2 3 Noroeste 13 Sudoeste 0 946.1 -0.7 84
2017-09-07 01:00:00 20.2 6 Sudoeste 13 Oeste 0 946.3 -0.1 80
2017-09-07 00:00:00 20.4 4 Norte 13 Nordeste 0 946.8 1.1 78
2017-09-06 23:00:00 21.2 5 Norte 12 Nordeste 0 946.8 1.5 74
2017-09-06 22:00:00 23.2 6 Sudoeste 14 Oeste 0 946.4 1.1 62
2017-09-06 21:00:00 24.1 5 Oeste 13 Sudoeste 0 945.7 0.7 57
2017-09-06 20:00:00 26 5 Sudeste 20 Nordeste 0 945.3 0 49
2017-09-06 19:00:00 27.9 13 Este 30 Sudeste 0 945.3 -0.7 40
2017-09-06 18:00:00 30.1 8 Sudeste 25 Este 0 945 -1.8 29
2017-09-06 17:00:00 31 8 Este 24 Nordeste 0 945.3 -2.1 27
2017-09-06 16:00:00 30.4 12 Nordeste 26 Este 0 946 -2 32
2017-09-06 15:00:00 30.3 11 Este 20 Nordeste 0 946.8 -1.6 32
2017-09-06 14:00:00 30 8 Este 18 Este 0 947.4 -1.1 33
2017-09-06 13:00:00 28.9 9 Este 18 Este 0 948 -0.4 35
2017-09-06 12:00:00 28 4 Sudeste 9 Sudeste 0 948.4 0.2 36
2017-09-06 11:00:00 25.5 3 Sudeste 9 Sudeste 0 948.5 0.5 47
2017-09-06 10:00:00 22.3 3 Este 5 Este 0 948.4 0.9 57
2017-09-06 09:00:00 17.3 0 Calma 4 Noroeste 0 948.2 0.5 77
2017-09-06 08:00:00 14.8 3 Oeste 5 Oeste 0 948 0.3 84
2017-09-06 07:00:00 15.5 3 Noroeste 6 Oeste 0 947.5 -0.5 79
2017-09-06 06:00:00 17.6 3 Oeste 15 Oeste 0 947.7 -0.7 68
2017-09-06 05:00:00 17.8 11 Oeste 17 Oeste 0 947.7 -0.8 70
2017-09-06 04:00:00 18.4 11 Oeste 16 Oeste 0 948 -0.9 69
2017-09-06 03:00:00 19.5 4 Sudoeste 26 Sudoeste 0 948.4 -0.8 65
2017-09-06 02:00:00 20.4 12 Sudoeste 19 Sudoeste 0 948.5 -0.5 59
2017-09-06 01:00:00 20.6 9 Sudoeste 16 Sudoeste 0 948.9 0.4 61
2017-09-06 00:00:00 22.6 11 Oeste 19 Oeste 0 949.2 1.3 46
2017-09-05 23:00:00 23.1 12 Oeste 21 Oeste 0 949 1.9 48
2017-09-05 22:00:00 24 13 Oeste 26 Oeste 0 948.5 1.7 50
2017-09-05 21:00:00 25.1 9 Oeste 20 Sur 0 947.9 1.1 49
2017-09-05 20:00:00 26.9 10 Sur 23 Sur 0 947.1 0.1 44
2017-09-05 19:00:00 29 9 Sur 23 Sur 0 946.8 -0.8 35
2017-09-05 18:00:00 30.1 8 Sudoeste 24 Sur 0 946.8 -1.3 31
2017-09-05 17:00:00 30.8 6 Sudeste 19 Sur 0 947 -1.6 31
2017-09-05 16:00:00 31.2 9 Sudeste 22 Sur 0 947.6 -1.4 31
2017-09-05 15:00:00 30.3 9 Sudoeste 22 Sur 0 948.1 -1.3 32
2017-09-05 14:00:00 29.6 9 Sudoeste 21 Oeste 0 948.6 -0.8 37
2017-09-05 13:00:00 29 11 Sur 19 Sudoeste 0 949 -0.2 34
2017-09-05 12:00:00 26.5 7 Sudeste 15 Sudeste 0 949.4 0.5 49
2017-09-05 11:00:00 25.1 4 Sur 11 Sudeste 0 949.4 1 59
2017-09-05 10:00:00 22.8 3 Sudeste 8 Este 0 949.2 1.2 68
2017-09-05 09:00:00 20.3 3 Sur 6 Sudoeste 0 948.9 1.3 79
2017-09-05 08:00:00 18.1 2 Sur 7 Sur 0 948.4 1 89
2017-09-05 07:00:00 17.9 3 Noroeste 6 Noroeste 0 948 0.8 90
2017-09-05 06:00:00 17.7 0 Calma 5 Noroeste 0 947.6 0.2 90
2017-09-05 05:00:00 17 4 Noroeste 6 Noroeste 0 947.4 0 90
2017-09-05 04:00:00 17.8 3 Noroeste 6 Noroeste 0 947.2 -0.3 88
2017-09-05 03:00:00 19.2 5 Norte 9 Norte 0 947.4 0.3 86
2017-09-05 02:00:00 19.8 5 Nordeste 15 Norte 0 947.4 0.9 85
2017-09-05 01:00:00 20 6 Norte 12 Norte 0 947.5 1.9 83
2017-09-05 00:00:00 20.3 6 Norte 13 Norte 0 947.1 2.9 77
2017-09-04 23:00:00 21.2 7 Norte 15 Nordeste 0 946.5 3.5 71
2017-09-04 22:00:00 22.4 9 Norte 19 Nordeste 0 945.6 3.6 73
2017-09-04 21:00:00 24.6 8 Nordeste 17 Nordeste 0 944.2 3.2 67
2017-09-04 20:00:00 26.6 3 Nordeste 22 Este 0 943 2.1 52
2017-09-04 19:00:00 28.6 12 Este 30 Nordeste 0 942 1 42
2017-09-04 18:00:00 30.7 10 Sudeste 23 Sudeste 0 941 0.1 29
2017-09-04 17:00:00 31.7 12 Este 31 Este 0 940.9 -0.1 25
2017-09-04 16:00:00 31.9 10 Este 25 Este 0 941 -0.3 26
2017-09-04 15:00:00 33.3 9 Este 26 Este 0 940.9 -0.7 23
2017-09-04 14:00:00 32.7 9 Este 22 Este 0 941 -0.6 23
2017-09-04 13:00:00 32.3 7 Sudoeste 22 Sudoeste 0 941.3 0 22
2017-09-04 12:00:00 30.8 11 Sur 24 Sudoeste 0 941.6 0.4 26
2017-09-04 11:00:00 28.6 12 Sudoeste 21 Sur 0 941.6 0.8 28
2017-09-04 10:00:00 25.7 12 Sudoeste 18 Oeste 0 941.3 0.8 39
2017-09-04 09:00:00 21.7 8 Sudoeste 17 Oeste 0 941.2 0.7 52
2017-09-04 08:00:00 19.9 10 Oeste 19 Oeste 0 940.8 0.1 61
2017-09-04 07:00:00 19.8 9 Oeste 17 Sudoeste 0 940.5 -0.4 65
2017-09-04 06:00:00 17.4 2 Sudoeste 9 Oeste 0 940.5 -0.7 77
2017-09-04 05:00:00 17.6 4 Oeste 13 Sudoeste 0 940.7 -0.7 78
2017-09-04 04:00:00 20.2 8 Sudoeste 18 Oeste 0 940.9 -0.8 68
2017-09-04 03:00:00 19.8 10 Sudoeste 14 Sudoeste 0 941.2 -0.5 70
2017-09-04 02:00:00 19.9 10 Oeste 17 Oeste 0 941.4 -0.5 72
2017-09-04 01:00:00 21 9 Sudoeste 18 Sudoeste 0 941.7 0.1 71
2017-09-04 00:00:00 21.7 10 Sudoeste 18 Sudoeste 0 941.7 0.4 69
2017-09-03 23:00:00 22.6 10 Sudoeste 18 Sudoeste 0 941.9 1 69
2017-09-03 22:00:00 24 12 Sudoeste 21 Sudoeste 0 941.6 0.9 62
2017-09-03 21:00:00 25.2 12 Oeste 28 Oeste 0 941.3 0.4 55
2017-09-03 20:00:00 27.1 5 Sudoeste 18 Este 0 940.9 -0.1 47
2017-09-03 19:00:00 28.9 7 Nordeste 15 Este 0 940.7 -0.8 41
2017-09-03 18:00:00 29 10 Este 21 Nordeste 0 940.9 -1.5 44
2017-09-03 17:00:00 30.6 9 Este 21 Este 0 941 -2.1 40
2017-09-03 16:00:00 30.4 4 Este 21 Este 0 941.5 -2.5 41
2017-09-03 15:00:00 28.3 6 Nordeste 15 Sudeste 0 942.4 -2.3 52
2017-09-03 14:00:00 27.8 7 Este 18 Nordeste 0 943.1 -1.8 52
2017-09-03 13:00:00 26.4 7 Este 15 Este 0 944 -0.9 58
2017-09-03 12:00:00 24.1 6 Este 12 Este 0 944.7 -0.4 64
2017-09-03 11:00:00 22.1 4 Este 10 Este 0 944.9 -0.1 72
2017-09-03 10:00:00 18.7 4 Sudeste 7 Sur 0 944.9 -0.2 88
2017-09-03 09:00:00 17.1 4 Este 6 Este 0 945.1 -0.2 92
2017-09-03 08:00:00 15.3 3 Noroeste 6 Sudoeste 0 945 -0.4 92
2017-09-03 07:00:00 16.6 3 Oeste 5 Sudoeste 0 945.1 -0.7 92
2017-09-03 06:00:00 15.8 2 Sur 4 Sudeste 0 945.3 -1 91
2017-09-03 05:00:00 16.5 5 Oeste 13 Oeste 0 945.4 -1.3 91
2017-09-03 04:00:00 16.6 4 Oeste 8 Oeste 0 945.8 -1.2 91
2017-09-03 03:00:00 17 5 Oeste 9 Oeste 0 946.3 -1.2 91
2017-09-03 02:00:00 17.5 3 Noroeste 7 Noroeste 0 946.7 -0.8 89
2017-09-03 01:00:00 18.8 4 Noroeste 14 Sudoeste 0 947 -0.1 86
2017-09-03 00:00:00 19.6 9 Sudoeste 18 Sudoeste 0 947.5 1.2 84
2017-09-02 23:00:00 20.3 9 Oeste 22 Oeste 0 947.5 1.8 81
2017-09-02 22:00:00 21 13 Oeste 24 Oeste 0 947.1 1.4 77
2017-09-02 21:00:00 22.3 8 Oeste 17 Oeste 0 946.3 0.5 72
2017-09-02 20:00:00 24 6 Este 20 Nordeste 0 945.7 -0.2 63
2017-09-02 19:00:00 25.2 10 Este 22 Este 0 945.7 -0.6 58
2017-09-02 18:00:00 26.4 9 Este 21 Nordeste 0 945.8 -1.1 55
2017-09-02 17:00:00 26.6 8 Este 19 Este 0 945.9 -1.6 54
2017-09-02 16:00:00 26.9 11 Nordeste 23 Este 0 946.3 -1.9 56
2017-09-02 15:00:00 27 10 Este 22 Este 0 946.9 -1.7 53
2017-09-02 14:00:00 25.8 8 Este 17 Este 0 947.5 -1.1 56
2017-09-02 13:00:00 24.9 8 Este 15 Nordeste 0 948.2 0.3 61
2017-09-02 12:00:00 21.4 6 Nordeste 13 Este 0 948.6 1.3 78
2017-09-02 11:00:00 19.7 4 Norte 12 Nordeste 0 948.6 1.6 84
2017-09-02 10:00:00 19.6 4 Este 12 Nordeste 0 947.9 1.4 85
2017-09-02 09:00:00 19.3 3 Nordeste 6 Nordeste 0 947.3 0.9 90
2017-09-02 08:00:00 18.9 3 Norte 5 Norte 0 947 0.6 90
2017-09-02 07:00:00 19.2 2 Sudoeste 5 Noroeste 0 946.5 0.1 91
2017-09-02 06:00:00 19.1 3 Norte 8 Norte 0.6 946.4 0.1 90
2017-09-02 05:00:00 19.3 2 Nordeste 7 Noroeste 0.2 946.4 0.2 89
2017-09-02 04:00:00 19.7 4 Noroeste 9 Nordeste 0 946.4 0.5 89
2017-09-02 03:00:00 20.1 3 Norte 9 Nordeste 0.4 946.3 0.6 89
2017-09-02 02:00:00 20.6 4 Nordeste 12 Este 0 946.2 0.7 84
2017-09-02 01:00:00 20.9 4 Este 9 Este 0 945.9 0.8 83
2017-09-02 00:00:00 21.2 0 Calma 7 Sudeste 0 945.7 1.5 81
2017-09-01 23:00:00 21.5 0 Calma 9 Este 0 945.5 1.9 80
2017-09-01 22:00:00 21.6 5 Este 13 Nordeste 0 945.1 2 81
2017-09-01 21:00:00 22.1 8 Este 22 Este 0 944.2 1.3 77
2017-09-01 20:00:00 23.2 12 Este 23 Nordeste 0 943.6 0.8 72
2017-09-01 19:00:00 24.6 10 Este 27 Este 0 943.1 -0.3 65
2017-09-01 18:00:00 26.4 12 Sudeste 25 Este 0 942.9 -1.1 60
2017-09-01 17:00:00 27.7 13 Este 26 Nordeste 0 942.8 -1.9 49
2017-09-01 16:00:00 27.4 12 Sudeste 25 Este 0 943.4 -2 52
2017-09-01 15:00:00 28.1 10 Este 19 Sudeste 0 944 -1.7 48
2017-09-01 14:00:00 27.4 6 Sudeste 19 Este 0 944.7 -0.8 50
2017-09-01 13:00:00 25.9 7 Nordeste 16 Nordeste 0 945.4 0.1 57
2017-09-01 12:00:00 25.1 5 Este 15 Este 0 945.7 0.4 61
2017-09-01 11:00:00 23.4 6 Este 13 Nordeste 0 945.5 0.7 64
2017-09-01 10:00:00 21 4 Este 9 Este 0 945.3 0.9 71
2017-09-01 09:00:00 17.4 4 Sudoeste 6 Sudoeste 0 945.3 0.9 85
2017-09-01 08:00:00 15.2 3 Oeste 8 Sudoeste 0 944.8 0.3 90
2017-09-01 07:00:00 15.9 4 Oeste 8 Oeste 0 944.4 -0.3 89
2017-09-01 06:00:00 16.5 5 Oeste 10 Noroeste 0 944.4 -0.6 88
2017-09-01 05:00:00 16.8 5 Noroeste 9 Noroeste 0 944.5 -0.9 89
2017-09-01 04:00:00 17.2 3 Noroeste 9 Norte 0 944.7 -0.6 89
2017-09-01 03:00:00 17.9 4 Noroeste 12 Norte 0 945 -0.3 85
2017-09-01 02:00:00 18.7 6 Norte 14 Norte 0 945.4 0.3 82
2017-09-01 01:00:00 18.9 8 Norte 14 Norte 0 945.3 0.8 77
2017-09-01 00:00:00 19.4 6 Norte 13 Norte 0 945.3 1.8 79
2017-08-31 23:00:00 19.9 5 Norte 12 Norte 0 945.1 1.9 74
2017-08-31 22:00:00 20.9 5 Norte 15 Norte 0 944.5 1.7 69
2017-08-31 21:00:00 22.5 6 Nordeste 15 Nordeste 0 943.5 0.9 65
2017-08-31 20:00:00 24 4 Nordeste 20 Nordeste 0 943.2 0.7 60
2017-08-31 19:00:00 25.3 6 Este 20 Este 0 942.8 0 55
2017-08-31 18:00:00 27.2 12 Sudeste 22 Este 0 942.6 -0.9 47
2017-08-31 17:00:00 28.1 11 Este 21 Este 0 942.5 -1.6 44
2017-08-31 16:00:00 27.8 6 Nordeste 15 Sudeste 0 942.8 -1.5 40
2017-08-31 15:00:00 27.5 6 Nordeste 17 Este 0 943.5 -1 42
2017-08-31 14:00:00 26.8 9 Este 21 Este 0 944.1 -0.3 43
2017-08-31 13:00:00 26.5 9 Nordeste 21 Este 0 944.3 0 48
2017-08-31 12:00:00 24.6 6 Este 12 Este 0 944.5 0.5 54
2017-08-31 11:00:00 22.8 5 Nordeste 8 Este 0 944.4 1 62
2017-08-31 10:00:00 18.7 3 Este 14 Oeste 0 944.3 1.1 82
2017-08-31 09:00:00 17.4 10 Oeste 14 Sudoeste 0 944 1.1 80
2017-08-31 08:00:00 16.9 8 Oeste 13 Oeste 0 943.4 0.8 81
2017-08-31 07:00:00 16 6 Oeste 10 Oeste 0 943.2 0.7 86
2017-08-31 06:00:00 16.6 3 Sudoeste 13 Oeste 0 942.9 -0.1 86
2017-08-31 05:00:00 17.7 10 Oeste 15 Oeste 0 942.6 -0.6 80
2017-08-31 04:00:00 16.6 4 Sudoeste 7 Sudoeste 0 942.5 -0.2 89
2017-08-31 03:00:00 16.7 5 Noroeste 8 Noroeste 0 943 -0.1 87
2017-08-31 02:00:00 17.7 3 Noroeste 13 Oeste 0 943.2 0.1 83
2017-08-31 01:00:00 18 7 Oeste 12 Oeste 0 942.7 -0.2 80
2017-08-31 00:00:00 18 4 Oeste 9 Oeste 0 943.1 0.8 86
2017-08-30 23:00:00 18 3 Sudoeste 8 Noroeste 0 943.1 0.9 87
2017-08-30 22:00:00 18.2 5 Oeste 9 Oeste 0 942.9 0.9 87
2017-08-30 21:00:00 19.4 3 Sudoeste 5 Sur 0 942.3 0.6 84
2017-08-30 20:00:00 21.6 4 Nordeste 9 Este 0 942.2 -0.2 74
2017-08-30 19:00:00 22.7 2 Norte 21 Sudoeste 0 942 -1.2 67
2017-08-30 18:00:00 23.4 11 Sudoeste 19 Sudoeste 0 941.7 -2.2 56
2017-08-30 17:00:00 22.5 7 Sudoeste 18 Sur 0 942.4 -1.8 64
2017-08-30 16:00:00 20.9 7 Sudoeste 18 Sudoeste 0 943.2 -0.8 74
2017-08-30 15:00:00 18.2 6 Sur -- -- 0 943.9 -1.3 88
2017-08-30 14:00:00 17.2 4 Oeste 15 Noroeste 0.6 944.2 -0.5 91
2017-08-30 13:00:00 16.8 4 Sudeste 18 Sudoeste 2.4 944 0.3 92
2017-08-30 12:00:00 16.7 8 Sudoeste 13 Sur 0.8 945.2 3 92
2017-08-30 11:00:00 16.8 4 Sur 19 Nordeste 0.4 944.7 2 91
2017-08-30 10:00:00 16.7 4 Este 13 Nordeste 0 943.7 1.2 90
2017-08-30 09:00:00 16.6 8 Este 15 Nordeste 0 942.2 0 91
2017-08-30 08:00:00 16.4 4 Nordeste 11 Nordeste 0 942.7 -0.4 91
2017-08-30 07:00:00 16.4 5 Este 13 Norte 0 942.5 0.1 91
2017-08-30 06:00:00 16.5 5 Nordeste 14 Oeste 0 942.2 -0.1 90
2017-08-30 05:00:00 16.6 6 Oeste 13 Oeste 0 943.1 0 89
2017-08-30 04:00:00 16.4 5 Oeste 11 Sudoeste 0 942.4 -0.6 91
2017-08-30 03:00:00 16.4 5 Sudoeste 10 Oeste 0 942.3 -1.5 91
2017-08-30 02:00:00 16.5 4 Sudoeste 17 Sudoeste 0 943.1 -0.4 90
2017-08-30 01:00:00 16.5 8 Sur 25 Oeste 0 943 1.2 89
2017-08-30 00:00:00 16.5 13 Sudoeste 26 Sudoeste 0.4 943.8 1.8 89
2017-08-29 23:00:00 17.1 9 Sudoeste 16 Nordeste 2.6 943.5 1.9 91
2017-08-29 22:00:00 17.2 4 Este 20 Sudoeste 2.6 941.8 0 90
2017-08-29 21:00:00 17.4 4 Oeste 7 Oeste 0 942 -0.3 86
2017-08-29 20:00:00 17.6 3 Oeste 11 Sudoeste 0 941.6 0.1 82
2017-08-29 19:00:00 17.8 9 Oeste 16 Oeste 0 941.8 0.7 77
2017-08-29 18:00:00 17.2 5 Sudoeste 18 Sudoeste 0 942.3 0.4 83
2017-08-29 17:00:00 17 11 Sudoeste 29 Oeste 0.8 941.5 -0.4 83
2017-08-29 16:00:00 16.5 13 Sudoeste 21 Oeste 3 941.1 -1.4 85
2017-08-29 15:00:00 17.2 11 Oeste 23 Sudoeste 4.4 941.9 0.1 88
2017-08-29 14:00:00 18.7 2 Sudeste 18 Sudoeste 0.8 941.9 -0.1 86
2017-08-29 13:00:00 19.4 9 Sudoeste 19 Sudoeste 0.2 942.5 0.8 72
2017-08-29 12:00:00 22 2 Sudeste 7 Sudeste 0 941.8 0.6 68
2017-08-29 11:00:00 20.6 2 Este 6 Sur 0 942 0.7 77
2017-08-29 10:00:00 18.2 0 Calma 9 Sudoeste 0 941.7 0.9 90
2017-08-29 09:00:00 16.8 5 Oeste 14 Sudoeste 0 941.2 0.1 91
2017-08-29 08:00:00 16.2 4 Sudoeste 9 Sudoeste 0 941.3 0.2 92
2017-08-29 07:00:00 16.7 5 Oeste 13 Oeste 0 940.8 -0.8 91
2017-08-29 06:00:00 17.2 4 Oeste 10 Oeste 0 941.1 -0.3 92
2017-08-29 05:00:00 17.7 4 Oeste 13 Oeste 0 941.1 -0.3 91
2017-08-29 04:00:00 17.9 0 Calma 12 Sudoeste 1.4 941.6 0.1 91
2017-08-29 03:00:00 17.4 4 Noroeste 22 Oeste 1.2 941.4 -0.4 89
2017-08-29 02:00:00 18 5 Oeste 8 Sudoeste 0.6 941.4 -0.6 88
2017-08-29 01:00:00 19.5 5 Oeste 12 Oeste 0 941.5 -0.4 77
2017-08-29 00:00:00 20.5 5 Sudoeste 14 Oeste 0 941.8 0 73
2017-08-28 23:00:00 21.2 8 Oeste 13 Oeste 0 942 0.8 69
2017-08-28 22:00:00 21.4 5 Oeste 13 Oeste 0 941.9 0.4 72
2017-08-28 21:00:00 23 8 Sudoeste 19 Sudoeste 0 941.8 0.3 65
2017-08-28 20:00:00 25.3 12 Sur 24 Sur 0 941.2 -0.4 53
2017-08-28 19:00:00 26.9 8 Sudeste 17 Sur 0 941.5 -0.6 45
2017-08-28 18:00:00 26.7 7 Sudoeste 22 Sudoeste 0 941.5 -1.2 43
2017-08-28 17:00:00 26.8 14 Sur 28 Sur 0 941.6 -1.8 43
2017-08-28 16:00:00 24.9 6 Sur 20 Oeste 0 942.1 -1.8 55
2017-08-28 15:00:00 23.1 11 Sur 31 Oeste 0 942.7 -1.1 69
2017-08-28 14:00:00 23.8 19 Sudoeste 35 Sudoeste 0 943.4 -0.4 65
2017-08-28 13:00:00 23.5 10 Sudoeste 27 Oeste 0 943.9 1.3 63
2017-08-28 12:00:00 23.7 11 Sudoeste 29 Sudoeste 0 943.8 2.3 59
2017-08-28 11:00:00 24.5 12 Sur 31 Sudoeste 0 943.8 1.8 53
2017-08-28 10:00:00 25.4 5 Sur 9 Sur 0 942.6 0.3 53
2017-08-28 09:00:00 20.3 0 Calma 6 Oeste 0 941.5 -1.3 74
2017-08-28 08:00:00 19.4 3 Sudoeste 13 Oeste 0 942 -1.8 74
2017-08-28 07:00:00 19.6 4 Sudoeste 6 Sudoeste 0 942.3 -1.3 74
2017-08-28 06:00:00 21.7 5 Este 21 Oeste 0 942.8 -0.8 65
2017-08-28 05:00:00 20.9 8 Sudoeste 20 Sudoeste 0 943.8 -0.3 70
2017-08-28 04:00:00 21.1 10 Sudoeste 23 Oeste 0 943.6 -0.5 70
2017-08-28 03:00:00 20.7 10 Sudoeste 20 Oeste 0 943.6 -0.6 71
2017-08-28 02:00:00 19.8 14 Oeste 24 Oeste 0 944.1 0.3 70
2017-08-28 01:00:00 21 12 Sudoeste 18 Sudoeste 0 944.1 0.6 63
2017-08-28 00:00:00 21.6 9 Sudoeste 17 Oeste 0 944.2 1 60
2017-08-27 23:00:00 21.7 7 Oeste 11 Oeste 0 943.8 -0.1 64
2017-08-27 22:00:00 21.6 3 Oeste 8 Noroeste 0 943.5 0.1 67
2017-08-27 21:00:00 23.3 4 Norte 17 Sudoeste 0 943.2 -0.2 62
2017-08-27 20:00:00 25 5 Oeste 15 Nordeste 0 943.9 0.9 58
2017-08-27 19:00:00 26.6 8 Nordeste 27 Noroeste 0 943.4 0.2 42
2017-08-27 18:00:00 28.2 13 Norte 27 Noroeste 0 943.4 -0.1 39
2017-08-27 17:00:00 30.3 10 Este 20 Nordeste 0 943 -1 39
2017-08-27 16:00:00 29.8 9 Este 18 Este 0 943.2 -0.9 40
2017-08-27 15:00:00 30.6 9 Nordeste 21 Este 0 943.5 -0.7 37
2017-08-27 14:00:00 28.5 8 Nordeste 19 Este 0 944 0.1 40
2017-08-27 13:00:00 28.4 8 Este 17 Nordeste 0 944.1 0.6 39
2017-08-27 12:00:00 26 7 Este 13 Este 0 944.2 0.9 46
2017-08-27 11:00:00 23.5 6 Sudoeste 10 Sudoeste 0 943.9 1.2 52
2017-08-27 10:00:00 22.6 2 Noroeste 8 Sudeste 0 943.5 1 65
2017-08-27 09:00:00 21.4 3 Sudeste 12 Oeste 0 943.3 0.4 60
2017-08-27 08:00:00 19.2 4 Oeste 19 Sudoeste 0 942.7 -0.6 63
2017-08-27 07:00:00 19.5 6 Sudoeste 19 Oeste 0 942.5 -1.5 64
2017-08-27 06:00:00 19.4 3 Noroeste 14 Sudoeste 0 942.9 -1 73
2017-08-27 05:00:00 20.4 5 Oeste 19 Oeste 0 943.3 -0.9 69
2017-08-27 04:00:00 20.6 12 Oeste 18 Oeste 0 944 -0.5 69
2017-08-27 03:00:00 21.2 8 Oeste 13 Oeste 0 943.9 -0.4 64
2017-08-27 02:00:00 21 4 Noroeste 6 Noroeste 0 944.2 -0.1 66
2017-08-27 01:00:00 22.1 4 Norte 18 Nordeste 0 944.5 1.3 71
2017-08-27 00:00:00 24 9 Este 17 Este 0 944.3 1.8 64
2017-08-26 23:00:00 24.3 3 Nordeste 11 Sudoeste 0 944.3 1.6 62
2017-08-26 22:00:00 23.6 3 Noroeste 12 Nordeste 0 943.2 -0.7 66
2017-08-26 21:00:00 25.1 5 Norte 16 Nordeste 0 942.5 0.3 59
2017-08-26 20:00:00 26.7 5 Sur 21 Noroeste 0 942.7 1.4 55
2017-08-26 19:00:00 27.7 7 Noroeste 21 Noroeste 0 943.9 2.2 48
2017-08-26 18:00:00 29.3 12 Este 29 Este 0 942.2 -0.2 46
2017-08-26 17:00:00 32.8 16 Este 30 Este 0 941.3 -1.6 38
2017-08-26 16:00:00 33.5 12 Nordeste 30 Nordeste 0 941.7 -1.6 35
2017-08-26 15:00:00 33.2 14 Este 28 Este 0 942.4 -1.4 32
2017-08-26 14:00:00 33.1 11 Este 19 Este 0 942.9 -1 28
2017-08-26 13:00:00 32.6 10 Sudeste 16 Sudeste 0 943.3 -0.2 30
2017-08-26 12:00:00 30.5 8 Este 15 Este 0 943.8 0.3 36
2017-08-26 11:00:00 28.3 9 Este 15 Nordeste 0 943.9 0.6 48
2017-08-26 10:00:00 26.1 4 Este 7 Este 0 943.5 0 49
2017-08-26 09:00:00 21.5 3 Este 11 Sudoeste 0 943.5 -0.3 70
2017-08-26 08:00:00 19.8 5 Sudoeste 11 Sudoeste 0 943.3 -0.6 75
2017-08-26 07:00:00 19.2 3 Este 9 Sudoeste 0 943.5 -0.8 84
2017-08-26 06:00:00 18.6 4 Oeste 6 Oeste 0 943.8 -0.5 84
2017-08-26 05:00:00 19.9 2 Oeste 6 Norte 0 943.9 -0.5 80
2017-08-26 04:00:00 21.6 3 Nordeste 8 Nordeste 0 944.3 -0.4 71
2017-08-26 03:00:00 22.4 3 Nordeste 12 Nordeste 0 944.3 -0.3 66
2017-08-26 02:00:00 24.6 6 Sudoeste 17 Oeste 0 944.4 0.1 60
2017-08-26 01:00:00 22.5 3 Oeste 8 Sudoeste 0 944.7 0.7 66
2017-08-26 00:00:00 22.8 5 Sudoeste 9 Norte 0 944.6 1 64
2017-08-25 23:00:00 24.1 3 Noroeste 12 Nordeste 0 944.3 1.3 59
2017-08-25 22:00:00 25.2 5 Norte 12 Sudoeste 0 944 1.1 55
2017-08-25 21:00:00 26 5 Noroeste 13 Oeste 0 943.6 0.4 47
2017-08-25 20:00:00 28.2 10 Oeste 30 Oeste 0 943 -0.3 34
2017-08-25 19:00:00 29.4 13 Oeste 30 Oeste 0 942.9 -0.7 34
2017-08-25 18:00:00 28.5 5 Noroeste 16 Norte 0 943.2 -0.4 40
2017-08-25 17:00:00 31.4 12 Nordeste 26 Nordeste 0 943.3 -0.8 33
2017-08-25 16:00:00 32.5 12 Este 25 Este 0 943.6 -1.2 28
2017-08-25 15:00:00 33.8 12 Este 23 Este 0 943.6 -1.2 26
2017-08-25 14:00:00 33 9 Nordeste 19 Nordeste 0 944.1 -0.9 27
2017-08-25 13:00:00 31.7 10 Este 17 Sudeste 0 944.8 0.1 31
2017-08-25 12:00:00 29.8 9 Este 17 Este 0 944.8 0.4 34
2017-08-25 11:00:00 28.3 4 Este 10 Nordeste 0 945 0.9 38
2017-08-25 10:00:00 25.8 3 Sudeste 13 Oeste 0 944.7 0.6 43
2017-08-25 09:00:00 20.4 9 Oeste 13 Oeste 0 944.4 0.3 56
2017-08-25 08:00:00 16.9 6 Oeste 12 Sudoeste 0 944.1 -0.3 69
2017-08-25 07:00:00 16.1 2 Sudoeste 7 Oeste 0 944.1 -0.5 75
2017-08-25 06:00:00 16.5 5 Sudoeste 8 Sudoeste 0 944.1 -0.6 75
2017-08-25 05:00:00 17.1 4 Oeste 9 Oeste 0 944.4 -0.5 74
2017-08-25 04:00:00 17.8 5 Oeste 8 Sudoeste 0 944.6 -0.4 71
2017-08-25 03:00:00 18.7 3 Sudoeste 9 Sudoeste 0 944.7 -0.1 69
2017-08-25 02:00:00 21 4 Oeste 13 Sudoeste 0 944.9 0.2 61
2017-08-25 01:00:00 22.7 8 Sudoeste 16 Oeste 0 945 0.7 53
2017-08-25 00:00:00 23.5 5 Sudoeste 13 Sudoeste 0 944.8 1.1 52
2017-08-24 23:00:00 24.6 6 Sudoeste 17 Sudoeste 0 944.7 1.6 52
2017-08-24 22:00:00 26.1 9 Sudoeste 16 Sudoeste 0 944.3 1.3 50
2017-08-24 21:00:00 27.7 6 Sudoeste 19 Sudoeste 0 943.7 0.6 45
2017-08-24 20:00:00 29.6 8 Sur 16 Sudoeste 0 943.1 0 39
2017-08-24 19:00:00 30.9 10 Este 27 Este 0 943 -0.5 32
2017-08-24 18:00:00 32 14 Este 27 Este 0 943.1 -0.9 30
2017-08-24 17:00:00 33.5 14 Este 27 Este 0 943.1 -1.3 26
2017-08-24 16:00:00 34.2 12 Este 30 Este 0 943.5 -1.5 24
2017-08-24 15:00:00 33.7 12 Este 23 Este 0 944 -1.4 23
2017-08-24 14:00:00 32.5 9 Este 16 Este 0 944.4 -1 19
2017-08-24 13:00:00 32.4 7 Este 16 Este 0 945 0.1 17
2017-08-24 12:00:00 29.9 8 Este 15 Este 0 945.4 0.8 26
2017-08-24 11:00:00 27.6 9 Este 15 Este 0 945.4 0.9 27
2017-08-24 10:00:00 26.2 6 Este 10 Sudeste 0 944.9 0.8 29
2017-08-24 09:00:00 20 2 Norte 9 Oeste 0 944.6 0.7 45
2017-08-24 08:00:00 17.1 2 Este 13 Oeste 0 944.5 0.3 51
2017-08-24 07:00:00 17.3 7 Oeste 21 Oeste 0 944.1 -0.1 50
2017-08-24 06:00:00 18.3 7 Oeste 15 Oeste 0 943.9 -0.3 47
2017-08-24 05:00:00 17.2 3 Noroeste 13 Oeste 0 944.2 -0.3 59
2017-08-24 04:00:00 19.8 7 Oeste 17 Oeste 0 944.2 -0.5 51
2017-08-24 03:00:00 20 8 Oeste 16 Oeste 0 944.2 -0.5 54
2017-08-24 02:00:00 21.3 11 Sudoeste 18 Oeste 0 944.5 -0.1 55
2017-08-24 01:00:00 22.7 8 Sudoeste 17 Oeste 0 944.7 0.5 60
2017-08-24 00:00:00 23.9 9 Oeste 17 Sudoeste 0 944.7 1.2 58
2017-08-23 23:00:00 24.1 6 Oeste 10 Sudoeste 0 944.6 1.6 55
2017-08-23 22:00:00 24.4 2 Sudoeste 13 Oeste 0 944.2 1.4 49
2017-08-23 21:00:00 27.1 4 Noroeste 19 Sur 0 943.5 0.6 35
2017-08-23 20:00:00 31 7 Sur 23 Sudeste 0 943 -0.1 27
2017-08-23 19:00:00 33 12 Sur 23 Sur 0 942.8 -0.6 22
2017-08-23 18:00:00 34.2 10 Sur 27 Sur 0 942.9 -0.9 21
2017-08-23 17:00:00 35.5 14 Sur 32 Sur 0 943.1 -1.2 17
2017-08-23 16:00:00 36.7 14 Sur 28 Sur 0 943.4 -1.4 13
2017-08-23 15:00:00 36.9 10 Sur 27 Sur 0 943.8 -1.2 11
2017-08-23 14:00:00 36.2 12 Sudeste 23 Sudeste 0 944.3 -0.5 12
2017-08-23 13:00:00 32.7 7 Este 15 Este 0 944.8 0.5 27
2017-08-23 12:00:00 31.1 9 Este 14 Este 0 945 0.8 32
2017-08-23 11:00:00 29.4 8 Este 17 Sudoeste 0 944.8 0.8 35
2017-08-23 10:00:00 27.3 12 Sudoeste 18 Sudoeste 0 944.3 0.5 40
2017-08-23 09:00:00 21.1 0 Calma 8 Oeste 0 944.2 0.5 56
2017-08-23 08:00:00 18.3 8 Oeste 19 Oeste 0 944 0.1 63
2017-08-23 07:00:00 18 0 Calma 16 Oeste 0 943.8 -0.1 67
2017-08-23 06:00:00 17.8 6 Sudoeste 13 Oeste 0 943.7 -0.5 67
2017-08-23 05:00:00 19.1 2 Noroeste 14 Oeste 0 943.9 -0.4 62
2017-08-23 04:00:00 20.2 6 Oeste 19 Oeste 0 943.9 -0.5 60
2017-08-23 03:00:00 20.8 9 Oeste 14 Oeste 0 944.2 -0.2 60
2017-08-23 02:00:00 20.9 4 Noroeste 14 Sudoeste 0 944.3 0 61
2017-08-23 01:00:00 22.5 8 Oeste 16 Sudoeste 0 944.4 0.4 56
2017-08-23 00:00:00 23.7 7 Oeste 15 Sudoeste 0 944.4 1 53
2017-08-22 23:00:00 24.8 9 Sudoeste 15 Sudoeste 0 944.3 1.3 51
2017-08-22 22:00:00 24.1 4 Noroeste 9 Nordeste 0 944 1.1 61
2017-08-22 21:00:00 26.5 5 Norte 18 Nordeste 0 943.4 0.3 53
2017-08-22 20:00:00 28.8 8 Nordeste 22 Nordeste 0 943 -0.3 45
2017-08-22 19:00:00 31 12 Nordeste 24 Nordeste 0 942.9 -0.9 34
2017-08-22 18:00:00 32.7 13 Este 26 Este 0 943.1 -1.4 27
2017-08-22 17:00:00 34.1 10 Nordeste 21 Nordeste 0 943.3 -1.7 23
2017-08-22 16:00:00 34.1 11 Este 22 Este 0 943.8 -1.9 23
2017-08-22 15:00:00 34.1 10 Este 21 Este 0 944.5 -1.6 25
2017-08-22 14:00:00 33.3 7 Este 17 Este 0 945 -1.3 29
2017-08-22 13:00:00 31.9 8 Este 17 Este 0 945.7 -0.6 33
2017-08-22 12:00:00 29.9 6 Sudeste 15 Este 0 946.1 0 36
2017-08-22 11:00:00 27.9 6 Este 12 Sudeste 0 946.3 0.4 48
2017-08-22 10:00:00 24.9 3 Sudeste 7 Sur 0 946.3 0.4 58
2017-08-22 09:00:00 20.4 0 Calma 4 Este 0 946.1 0.2 73
2017-08-22 08:00:00 16.7 3 Noroeste 8 Oeste 0 945.9 -0.1 88
2017-08-22 07:00:00 16.8 0 Calma 12 Sudoeste 0 945.9 -0.2 86
2017-08-22 06:00:00 16.5 3 Noroeste 7 Sudoeste 0 945.9 -0.3 88
2017-08-22 05:00:00 17 0 Calma 5 Noroeste 0 946 -0.4 86
2017-08-22 04:00:00 17.7 2 Oeste 5 Oeste 0 946.1 -0.2 83
2017-08-22 03:00:00 18.6 3 Sur 4 Sudoeste 0 946.2 -0.5 80
2017-08-22 02:00:00 20.1 3 Oeste 15 Sudoeste 0 946.4 0 75
2017-08-22 01:00:00 21.8 7 Sudoeste 15 Sudoeste 0 946.3 0.1 69
2017-08-22 00:00:00 22 8 Sudoeste 14 Sudoeste 0 946.7 1.2 68